Time;durP1;ratioP1;P1;durP2;ratioP2;P2;SDS_P1;SDS_P2;PMS_P1;PMS_P2;Temp;Humidity;BMP_temperature;BMP_pressure;BME280_temperature;BME280_humidity;BME280_pressure;Samples;Min_cycle;Max_cycle;Signal;HPM_P1;HPM_P2
2023/01/19 00:03:16;;;;;;;18.35;6.75;;;;;;;0.88;72.13;99244.44;10314472;28;20051;-62
2023/01/19 00:08:18;;;;;;;19.48;7.25;;;;;;;0.89;72.17;99241.66;10321013;28;20122;-63
2023/01/19 00:13:19;;;;;;;17.83;6.55;;;;;;;0.93;71.28;99243.06;10324689;28;20059;-66
2023/01/19 00:18:21;;;;;;;17.90;7.53;;;;;;;0.92;72.16;99248.47;10319527;28;20054;-63
2023/01/19 00:23:24;;;;;;;14.93;6.95;;;;;;;1.00;71.40;99251.25;10321884;28;20082;-61
2023/01/19 00:28:25;;;;;;;18.63;7.38;;;;;;;1.05;71.50;99251.66;10322256;28;20597;-62
2023/01/19 00:33:27;;;;;;;16.27;8.40;;;;;;;1.06;70.64;99260.44;10322175;28;20059;-60
2023/01/19 00:38:28;;;;;;;14.93;6.95;;;;;;;0.91;70.58;99266.16;10329407;28;20087;-60
2023/01/19 00:43:29;;;;;;;19.15;7.20;;;;;;;0.87;70.92;99269.22;10328821;28;20754;-65
2023/01/19 00:48:31;;;;;;;14.98;6.72;;;;;;;0.82;71.92;99271.47;10329378;28;20055;-60
2023/01/19 00:53:32;;;;;;;18.30;6.63;;;;;;;0.75;71.78;99265.88;10328756;28;20061;-62
2023/01/19 00:58:33;;;;;;;13.52;6.88;;;;;;;0.70;71.70;99282.19;10326056;28;20055;-61
2023/01/19 01:03:35;;;;;;;14.25;6.78;;;;;;;0.72;72.44;99279.41;10327629;28;20043;-60
2023/01/19 01:08:36;;;;;;;15.77;6.82;;;;;;;0.70;71.58;99279.53;10328839;28;20359;-60
2023/01/19 01:13:38;;;;;;;12.82;7.03;;;;;;;0.73;72.40;99286.34;10332816;28;20055;-62
2023/01/19 01:18:39;;;;;;;16.45;8.20;;;;;;;0.80;71.80;99287.47;10327008;28;20047;-62
2023/01/19 01:23:40;;;;;;;17.05;8.15;;;;;;;0.78;71.94;99289.41;10326953;28;20054;-61
2023/01/19 01:28:42;;;;;;;18.08;6.47;;;;;;;0.80;71.13;99292.75;10327412;28;20773;-61
2023/01/19 01:33:43;;;;;;;14.35;7.40;;;;;;;0.75;71.05;99301.13;10325182;28;20051;-63
2023/01/19 01:38:45;;;;;;;16.38;7.32;;;;;;;0.64;71.27;99314.47;10325847;28;20074;-61
2023/01/19 01:43:57;;;;;;;16.30;7.60;;;;;;;0.68;71.81;99312.38;10325758;28;20057;-64
2023/01/19 01:49:06;;;;;;;15.82;8.38;;;;;;;0.68;72.00;99296.53;10322086;28;20051;-62
2023/01/19 01:54:17;;;;;;;22.42;9.68;;;;;;;0.69;71.07;99299.03;10324960;28;20086;-62
2023/01/19 01:59:28;;;;;;;19.10;9.02;;;;;;;0.67;71.74;99300.13;10324672;28;20082;-61
2023/01/19 02:04:30;;;;;;;14.95;7.18;;;;;;;0.63;71.00;99296.91;10327733;28;20051;-64
2023/01/19 02:14:55;;;;;;;17.70;7.45;;;;;;;0.43;71.84;99314.56;10328271;28;20066;-62
2023/01/19 02:19:56;;;;;;;20.40;9.55;;;;;;;0.35;72.79;99315.25;10332038;28;20050;-62
2023/01/19 02:24:58;;;;;;;15.45;7.35;;;;;;;0.41;71.88;99311.22;10330324;28;20050;-61
2023/01/19 02:30:02;;;;;;;15.15;7.47;;;;;;;0.37;72.41;99304.56;10327816;28;20051;-63
2023/01/19 02:35:05;;;;;;;19.40;9.07;;;;;;;0.42;73.25;99302.34;10324754;28;20061;-62
2023/01/19 02:40:12;;;;;;;18.38;7.93;;;;;;;0.45;72.98;99288.84;10331779;28;20105;-61
2023/01/19 02:45:18;;;;;;;20.38;8.82;;;;;;;0.47;73.12;99288.72;10328163;28;20054;-61
2023/01/19 02:50:36;;;;;;;15.38;7.78;;;;;;;0.55;73.21;99291.50;10331758;28;20055;-59
2023/01/19 02:55:39;;;;;;;13.77;7.25;;;;;;;0.53;73.61;99286.38;10328021;28;20569;-63
2023/01/19 03:00:54;;;;;;;16.52;7.03;;;;;;;0.52;73.54;99282.03;10334009;28;20058;-64
2023/01/19 03:05:55;;;;;;;18.02;8.13;;;;;;;0.53;73.66;99272.28;10330441;28;20129;-61
2023/01/19 03:11:04;;;;;;;20.33;8.38;;;;;;;0.51;73.45;99275.06;10331912;28;20059;-64
2023/01/19 03:16:09;;;;;;;15.30;7.60;;;;;;;0.44;73.34;99279.25;10329247;28;20050;-65
2023/01/19 03:21:13;;;;;;;13.32;7.38;;;;;;;0.42;73.34;99278.56;10332757;28;20047;-63
2023/01/19 03:26:23;;;;;;;22.13;7.60;;;;;;;0.35;73.43;99269.50;10326535;28;20050;-64
2023/01/19 03:31:27;;;;;;;23.05;7.75;;;;;;;0.32;73.49;99283.00;10328579;28;20046;-64
2023/01/19 03:36:33;;;;;;;15.45;7.53;;;;;;;0.37;73.93;99281.59;10331666;28;20045;-63
2023/01/19 03:41:38;;;;;;;15.15;8.68;;;;;;;0.34;73.24;99292.47;10329869;28;20477;-62
2023/01/19 03:46:40;;;;;;;15.30;8.23;;;;;;;0.41;73.12;99291.91;10330176;28;20054;-62
2023/01/19 03:51:41;;;;;;;17.20;8.32;;;;;;;0.37;73.09;99289.53;10328867;28;20129;-62
2023/01/19 03:56:43;;;;;;;19.00;8.98;;;;;;;0.33;74.08;99301.34;10332682;28;20074;-60
2023/01/19 04:01:45;;;;;;;18.77;8.13;;;;;;;0.32;73.19;99293.56;10331518;28;20094;-63
2023/01/19 04:06:46;;;;;;;17.50;7.88;;;;;;;0.28;73.86;99292.19;10326139;28;20560;-62
2023/01/19 04:11:48;;;;;;;17.48;8.70;;;;;;;0.32;73.48;99293.56;10336914;28;20069;-60
2023/01/19 04:16:50;;;;;;;16.90;7.30;;;;;;;0.34;73.91;99295.09;10339080;28;20054;-60
2023/01/19 04:21:51;;;;;;;18.15;8.52;;;;;;;0.32;73.52;99297.03;10336250;28;20045;-65
2023/01/19 04:26:52;;;;;;;19.02;8.43;;;;;;;0.36;73.65;99293.16;10340306;28;20082;-62
2023/01/19 04:31:54;;;;;;;15.52;7.95;;;;;;;0.33;73.46;99293.41;10343732;28;20050;-60
2023/01/19 04:36:55;;;;;;;20.85;9.18;;;;;;;0.34;74.04;99296.91;10337472;28;20164;-62
2023/01/19 04:41:56;;;;;;;15.38;8.68;;;;;;;0.32;74.32;99304.16;10340013;28;20073;-60
2023/01/19 04:46:58;;;;;;;17.35;9.60;;;;;;;0.39;73.58;99303.47;10338264;28;20053;-63
2023/01/19 04:52:00;;;;;;;20.13;8.80;;;;;;;0.47;73.59;99301.94;10341205;28;20046;-64
2023/01/19 04:57:01;;;;;;;16.52;8.98;;;;;;;0.56;74.20;99303.75;10337193;28;20050;-62
2023/01/19 05:02:02;;;;;;;18.98;9.00;;;;;;;0.61;73.63;99312.09;10339688;28;20046;-60
2023/01/19 05:07:04;;;;;;;20.40;8.68;;;;;;;0.72;74.15;99316.44;10339251;28;20052;-63
2023/01/19 05:12:05;;;;;;;20.40;10.23;;;;;;;0.83;73.54;99310.16;10337954;28;20059;-63
2023/01/19 05:17:07;;;;;;;17.40;8.20;;;;;;;0.86;73.65;99313.34;10339649;28;20403;-64
2023/01/19 05:22:08;;;;;;;15.85;8.95;;;;;;;0.95;74.01;99315.19;10343403;28;20046;-60
2023/01/19 05:27:10;;;;;;;19.95;8.85;;;;;;;1.01;74.14;99316.44;10331427;28;20109;-61
2023/01/19 05:32:12;;;;;;;16.80;8.38;;;;;;;1.07;74.51;99304.44;10344654;28;20924;-63
2023/01/19 05:37:14;;;;;;;15.35;8.98;;;;;;;1.15;74.56;99312.50;10347409;28;20062;-65
2023/01/19 05:42:15;;;;;;;21.80;10.32;;;;;;;1.24;74.54;99329.34;10351601;28;20042;-65
2023/01/19 05:47:17;;;;;;;16.10;8.95;;;;;;;1.31;74.12;99331.28;10331958;28;20669;-63
2023/01/19 05:52:18;;;;;;;19.27;8.73;;;;;;;1.33;74.19;99336.44;10347517;28;20077;-62
2023/01/19 05:57:21;;;;;;;14.88;8.88;;;;;;;1.46;73.83;99338.78;10338960;28;20055;-65
2023/01/19 06:02:27;;;;;;;21.92;10.13;;;;;;;1.51;74.03;99341.84;10342327;28;20069;-62
2023/01/19 06:07:30;;;;;;;20.52;9.30;;;;;;;1.55;74.44;99349.34;10347320;28;20051;-63
2023/01/19 06:12:32;;;;;;;22.92;10.80;;;;;;;1.54;73.85;99336.25;10333945;28;20051;-61
2023/01/19 06:17:33;;;;;;;22.33;10.48;;;;;;;1.57;74.13;99341.28;10325111;28;20052;-60
2023/01/19 06:22:34;;;;;;;20.42;10.60;;;;;;;1.58;73.96;99350.91;10331358;28;20051;-63
2023/01/19 06:27:36;;;;;;;21.15;10.05;;;;;;;1.58;74.19;99358.84;10349228;28;20076;-64
2023/01/19 06:32:37;;;;;;;23.17;10.95;;;;;;;1.60;74.32;99362.19;10340592;28;20057;-62
2023/01/19 06:37:39;;;;;;;24.65;11.73;;;;;;;1.64;74.47;99360.06;10339486;28;20046;-65
2023/01/19 06:42:40;;;;;;;21.90;9.93;;;;;;;1.61;73.66;99360.38;10344587;28;20051;-64
2023/01/19 06:47:42;;;;;;;22.67;11.05;;;;;;;1.61;74.26;99365.66;10343445;28;20042;-66
2023/01/19 06:52:43;;;;;;;22.33;11.88;;;;;;;1.59;73.76;99371.94;10345458;28;20046;-63
2023/01/19 06:57:44;;;;;;;25.50;12.00;;;;;;;1.67;74.60;99373.03;10312725;28;20454;-60
2023/01/19 07:02:46;;;;;;;22.85;11.77;;;;;;;1.73;73.96;99377.75;10317576;28;21046;-61
2023/01/19 07:07:54;;;;;;;27.50;11.45;;;;;;;1.70;74.13;99370.09;10319878;28;20654;-61
2023/01/19 07:12:56;;;;;;;23.42;11.70;;;;;;;1.70;74.35;99378.88;10324199;28;20086;-60
2023/01/19 07:18:00;;;;;;;21.80;11.68;;;;;;;1.75;74.27;99381.94;10347804;28;20041;-65
2023/01/19 07:23:02;;;;;;;19.65;10.85;;;;;;;1.82;74.35;99374.25;10349271;28;20030;-65
2023/01/19 07:28:04;;;;;;;19.67;10.27;;;;;;;1.96;73.83;99373.78;10349593;28;20087;-64
2023/01/19 07:33:05;;;;;;;21.85;9.90;;;;;;;2.12;74.04;99375.81;10348478;28;20030;-64
2023/01/19 07:38:07;;;;;;;23.45;10.40;;;;;;;2.14;73.26;99387.09;10942169;23;20050;-62
2023/01/19 07:43:08;;;;;;;23.10;9.40;;;;;;;2.26;72.95;99371.84;10347845;28;20128;-63
2023/01/19 08:10:21;;;;;;;22.88;10.35;;;;;;;2.55;73.95;99384.13;11702558;23;20050;-90
2023/01/19 08:15:23;;;;;;;20.92;10.10;;;;;;;2.67;73.76;99382.09;10313224;28;20060;-90
2023/01/19 08:25:44;;;;;;;18.52;10.40;;;;;;;2.95;73.90;99385.53;10901867;23;20061;-90
2023/01/19 08:30:52;;;;;;;17.65;8.73;;;;;;;2.99;73.92;99378.94;10300754;28;20047;-90
2023/01/19 08:35:54;;;;;;;20.48;9.90;;;;;;;3.09;74.45;99376.22;10315488;28;20059;-91
2023/01/19 08:41:00;;;;;;;19.58;9.85;;;;;;;3.19;74.02;99374.31;10302186;28;20521;-91
2023/01/19 08:46:04;;;;;;;22.08;9.50;;;;;;;3.24;73.85;99373.84;10288567;28;20143;-89
2023/01/19 08:51:06;;;;;;;18.60;8.75;;;;;;;3.34;74.24;99370.13;10314253;28;20092;-91
2023/01/19 08:56:12;;;;;;;16.13;8.77;;;;;;;3.45;74.37;99382.31;10809888;23;20042;-91
2023/01/19 09:01:15;;;;;;;18.65;9.75;;;;;;;3.57;74.22;99375.78;10311761;28;20146;-91
2023/01/19 09:06:18;;;;;;;16.63;9.85;;;;;;;3.68;73.97;99397.78;10319758;28;20046;-92
2023/01/19 09:11:19;;;;;;;18.85;8.77;;;;;;;3.80;73.67;99407.16;10319662;28;20042;-90
2023/01/19 09:16:21;;;;;;;17.63;9.52;;;;;;;3.98;73.47;99407.09;10319731;28;20520;-91
2023/01/19 09:21:22;;;;;;;16.30;7.63;;;;;;;4.06;73.43;99417.78;10300388;28;20055;-90
2023/01/19 09:26:24;;;;;;;15.05;8.18;;;;;;;4.18;72.87;99418.34;10325060;28;20046;-91
2023/01/19 09:31:26;;;;;;;19.00;9.20;;;;;;;4.48;72.51;99402.88;10297146;28;20059;-91
2023/01/19 09:36:28;;;;;;;13.95;7.78;;;;;;;4.80;72.25;99404.81;10303371;28;20062;-90
2023/01/19 09:41:34;;;;;;;13.95;7.97;;;;;;;5.02;72.00;99403.38;10320714;28;20055;-90
2023/01/19 09:46:42;;;;;;;13.60;7.28;;;;;;;5.11;71.95;99410.34;10317724;28;20779;-91
2023/01/19 09:51:47;;;;;;;12.15;6.70;;;;;;;5.19;71.19;99408.72;10317160;28;20065;-92
2023/01/19 09:56:49;;;;;;;14.00;7.65;;;;;;;5.21;71.55;99396.06;10315829;28;20346;-91
2023/01/19 10:02:18;;;;;;;14.32;7.05;;;;;;;5.16;71.36;99399.22;10326910;28;20039;-90
2023/01/19 10:07:42;;;;;;;12.82;7.00;;;;;;;4.93;70.97;99401.69;10342412;28;20057;-90
2023/01/19 10:13:21;;;;;;;15.02;7.45;;;;;;;4.74;71.12;99408.13;10335832;28;20064;-90
2023/01/19 10:18:32;;;;;;;13.05;7.93;;;;;;;4.68;71.46;99411.41;10320338;28;20058;-90
2023/01/19 10:24:11;;;;;;;16.08;8.15;;;;;;;4.62;71.63;99412.06;10313931;28;20141;-90
2023/01/19 10:29:35;;;;;;;14.48;8.55;;;;;;;4.63;71.72;99411.09;10337121;28;20038;-91
2023/01/19 10:34:37;;;;;;;21.02;8.60;;;;;;;4.55;71.45;99409.22;10318824;28;20110;-90
2023/01/19 10:39:40;;;;;;;18.88;8.93;;;;;;;4.40;71.89;99408.97;10313027;28;20066;-90
2023/01/19 10:44:44;;;;;;;14.93;8.10;;;;;;;4.41;71.79;99409.84;10318489;28;20051;-91
2023/01/19 10:49:47;;;;;;;18.02;9.82;;;;;;;4.44;72.24;99405.00;10317285;28;20057;-90
2023/01/19 10:54:49;;;;;;;14.45;8.45;;;;;;;4.51;72.08;99413.19;10323543;28;20050;-91
2023/01/19 10:59:51;;;;;;;21.05;9.55;;;;;;;4.51;72.47;99402.56;10322894;28;20046;-90
2023/01/19 11:05:19;;;;;;;17.88;9.20;;;;;;;4.51;72.38;99408.72;10321678;28;20250;-92
2023/01/19 11:10:30;;;;;;;11.55;6.50;;;;;;;4.66;71.66;99413.41;10809798;23;20031;-90
2023/01/19 11:15:51;;;;;;;10.80;5.63;;;;;;;4.57;72.46;99417.88;10351462;23;20082;-90
2023/01/19 11:31:30;;;;;;;10.63;5.10;;;;;;;4.72;72.48;99408.28;10590061;23;20514;-90
2023/01/19 11:36:34;;;;;;;14.30;5.70;;;;;;;4.66;73.09;99410.75;10273976;28;20131;-89
2023/01/19 11:41:38;;;;;;;8.50;5.03;;;;;;;4.68;72.75;99401.63;10280572;28;20057;-90
2023/01/19 11:46:42;;;;;;;10.82;5.20;;;;;;;4.65;72.87;99415.25;10293385;28;20047;-90
2023/01/19 11:51:56;;;;;;;7.43;4.75;;;;;;;4.61;73.14;99405.91;10285397;28;20050;-89
2023/01/19 11:56:59;;;;;;;9.15;4.50;;;;;;;4.62;73.42;99404.06;10280698;28;20047;-90
2023/01/19 12:02:03;;;;;;;10.13;4.82;;;;;;;4.67;73.20;99407.09;10293406;28;20144;-89
2023/01/19 12:07:09;;;;;;;8.07;5.03;;;;;;;4.65;73.01;99412.59;10281938;28;20051;-90
2023/01/19 12:12:37;;;;;;;11.10;5.03;;;;;;;4.57;73.26;99412.56;10291078;28;20301;-90
2023/01/19 12:17:50;;;;;;;8.50;4.75;;;;;;;4.35;73.53;99419.28;10276690;28;20085;-90
2023/01/19 12:23:16;;;;;;;9.10;5.10;;;;;;;4.32;73.86;99412.44;10258884;28;20177;-89
2023/01/19 12:28:25;;;;;;;16.02;5.20;;;;;;;4.25;73.92;99413.25;10273177;28;20063;-89
2023/01/19 12:33:37;;;;;;;8.82;4.35;;;;;;;4.30;73.44;99408.28;10253404;28;20054;-89
2023/01/19 12:39:05;;;;;;;6.97;3.95;;;;;;;4.25;73.83;99405.28;10268001;28;20027;-89
2023/01/19 12:44:09;;;;;;;9.50;4.43;;;;;;;4.29;73.60;99404.78;10291628;28;20043;-89
2023/01/19 12:49:39;;;;;;;13.00;5.18;;;;;;;4.29;73.95;99409.28;10274774;28;20054;-90
2023/01/19 12:55:01;;;;;;;10.38;5.80;;;;;;;4.10;74.23;99416.47;10278378;28;20047;-91
2023/01/19 13:00:24;;;;;;;8.88;5.38;;;;;;;4.17;74.17;99417.53;10278053;28;20054;-90
2023/01/19 13:05:31;;;;;;;13.52;5.57;;;;;;;4.19;74.01;99417.38;10292915;23;20058;-90
2023/01/19 13:10:52;;;;;;;12.55;4.70;;;;;;;4.23;74.15;99410.75;10284417;28;20090;-92
2023/01/19 13:15:58;;;;;;;10.70;5.20;;;;;;;4.25;74.01;99411.41;10279334;28;20206;-90
2023/01/19 13:21:05;;;;;;;12.57;5.32;;;;;;;4.19;74.29;99401.41;10300206;28;20050;-90
2023/01/19 13:26:14;;;;;;;10.70;5.27;;;;;;;4.22;74.53;99400.25;10274009;28;20051;-90
2023/01/19 13:31:17;;;;;;;11.85;5.05;;;;;;;4.33;74.17;99416.78;10280234;28;20043;-91
2023/01/19 13:47:44;;;;;;;8.73;4.05;;;;;;;4.23;74.83;99424.03;2197268;23;20067;-90
2023/01/19 13:52:47;;;;;;;16.75;5.70;;;;;;;4.22;74.78;99429.50;10283881;28;20086;-91
2023/01/19 13:57:50;;;;;;;11.55;5.10;;;;;;;4.22;74.94;99438.31;10264021;28;20051;-91
2023/01/19 14:03:12;;;;;;;9.88;5.25;;;;;;;4.28;74.94;99434.19;10293897;28;20039;-91
2023/01/19 14:08:19;;;;;;;11.13;4.35;;;;;;;4.20;75.20;99434.16;10274500;28;20050;-91
2023/01/19 14:13:32;;;;;;;11.75;4.63;;;;;;;4.17;74.92;99441.47;10288898;28;20156;-91
2023/01/19 14:18:35;;;;;;;12.88;4.78;;;;;;;4.09;75.02;99443.25;10268536;28;20053;-90
2023/01/19 14:23:46;;;;;;;13.82;5.80;;;;;;;4.06;75.24;99449.69;10268128;28;20055;-91
2023/01/19 14:28:47;;;;;;;10.40;5.40;;;;;;;4.12;75.20;99459.72;10279189;28;20047;-91
2023/01/19 14:33:52;;;;;;;15.95;5.97;;;;;;;4.09;75.29;99459.22;10289774;28;20140;-92
2023/01/19 14:38:58;;;;;;;12.88;5.57;;;;;;;4.08;75.75;99452.22;10263719;28;20067;-90
2023/01/19 14:44:01;;;;;;;12.45;5.82;;;;;;;4.03;75.67;99459.81;10268762;28;20057;-90
2023/01/19 14:49:05;;;;;;;12.27;5.28;;;;;;;4.07;75.27;99472.66;10291814;28;20054;-90
2023/01/19 14:54:15;;;;;;;10.98;5.20;;;;;;;4.17;75.11;99475.22;10295649;28;20050;-90
2023/01/19 14:59:17;;;;;;;14.75;6.28;;;;;;;4.16;75.28;99481.50;10297362;28;20097;-90
2023/01/19 15:04:18;;;;;;;12.55;6.18;;;;;;;4.22;75.22;99477.41;10302197;28;20046;-90
2023/01/19 15:09:20;;;;;;;13.75;6.72;;;;;;;4.18;75.02;99483.00;10309424;28;20046;-90
2023/01/19 15:14:24;;;;;;;12.13;7.15;;;;;;;4.18;75.57;99485.66;10312091;28;20054;-90
2023/01/19 15:19:27;;;;;;;13.02;6.30;;;;;;;4.27;75.08;99486.59;10297101;28;20061;-90
2023/01/19 15:24:29;;;;;;;13.27;7.10;;;;;;;4.42;74.68;99489.47;10297848;28;20113;-90
2023/01/19 15:29:31;;;;;;;13.32;6.70;;;;;;;4.37;75.12;99497.94;10300582;28;20114;-90
2023/01/19 15:34:32;;;;;;;20.40;7.35;;;;;;;4.18;75.34;99491.00;10300081;28;20046;-90
2023/01/19 15:39:34;;;;;;;15.57;7.22;;;;;;;4.13;75.48;99498.63;10314352;28;20119;-90
2023/01/19 15:44:36;;;;;;;15.88;7.30;;;;;;;4.16;75.23;99498.28;10297409;28;20499;-89
2023/01/19 15:49:37;;;;;;;18.63;7.63;;;;;;;4.12;75.65;99502.25;10321399;28;20073;-90
2023/01/19 15:54:39;;;;;;;17.75;6.78;;;;;;;4.13;75.68;99503.94;10307828;28;20114;-90
2023/01/19 15:59:41;;;;;;;17.77;7.28;;;;;;;4.04;75.27;99509.34;10296965;28;20557;-91
2023/01/19 16:04:47;;;;;;;18.30;7.80;;;;;;;4.03;75.88;99519.16;10292171;28;20899;-91
2023/01/19 16:09:49;;;;;;;17.52;7.20;;;;;;;4.03;75.42;99516.50;10320402;28;20065;-91
2023/01/19 16:14:50;;;;;;;16.95;8.30;;;;;;;4.06;75.71;99526.00;10354989;23;20068;-62
2023/01/19 16:19:51;;;;;;;18.13;7.55;;;;;;;4.04;75.76;99522.66;10317307;28;20050;-62
2023/01/19 16:24:55;;;;;;;20.42;9.27;;;;;;;4.01;75.74;99525.59;10326943;28;20054;-63
2023/01/19 16:29:58;;;;;;;22.15;9.13;;;;;;;4.06;75.70;99526.00;10323699;28;20081;-62
2023/01/19 16:35:00;;;;;;;17.30;8.73;;;;;;;4.13;75.47;99532.38;10328083;28;20140;-62
2023/01/19 16:40:02;;;;;;;19.80;8.73;;;;;;;4.11;75.03;99532.53;10324366;28;20058;-63
2023/01/19 16:45:04;;;;;;;19.50;8.45;;;;;;;4.13;75.32;99543.84;10321816;28;20050;-63
2023/01/19 16:50:09;;;;;;;12.15;7.50;;;;;;;4.16;75.49;99543.50;10328844;28;20035;-63
2023/01/19 16:55:12;;;;;;;17.63;8.23;;;;;;;4.14;75.62;99550.81;10326546;28;20058;-62
2023/01/19 17:00:14;;;;;;;17.98;7.43;;;;;;;4.17;75.61;99553.16;10324888;28;20066;-61
2023/01/19 17:05:15;;;;;;;15.48;7.78;;;;;;;4.22;75.33;99555.34;10324522;28;20047;-61
2023/01/19 17:10:16;;;;;;;15.27;7.40;;;;;;;4.19;75.58;99561.00;10330055;28;20058;-63
2023/01/19 17:15:18;;;;;;;19.65;8.07;;;;;;;4.25;75.55;99562.22;10324347;28;20101;-61
2023/01/19 17:20:19;;;;;;;15.60;8.73;;;;;;;4.26;75.15;99561.22;10324442;28;20054;-62
2023/01/19 17:25:20;;;;;;;19.20;8.75;;;;;;;4.24;75.36;99564.03;10325838;28;20042;-61
2023/01/19 17:30:22;;;;;;;20.92;9.35;;;;;;;4.26;75.31;99563.88;10324488;28;20043;-59
2023/01/19 17:35:23;;;;;;;22.83;8.52;;;;;;;4.28;75.44;99567.22;10323255;28;20050;-62
2023/01/19 17:40:25;;;;;;;22.92;9.15;;;;;;;4.40;75.35;99557.16;10323334;28;20041;-62
2023/01/19 17:45:26;;;;;;;22.45;9.15;;;;;;;4.51;75.06;99572.88;10327674;28;20031;-62
2023/01/19 17:50:28;;;;;;;26.17;10.07;;;;;;;4.54;74.98;99580.53;10325302;28;20065;-62
2023/01/19 17:55:33;;;;;;;19.80;9.00;;;;;;;4.64;74.81;99583.09;10318917;28;20066;-63
2023/01/19 18:00:34;;;;;;;18.73;9.50;;;;;;;4.68;74.78;99582.63;10317339;28;20057;-63
2023/01/19 18:05:35;;;;;;;19.27;9.45;;;;;;;4.70;74.30;99585.97;10307496;28;20082;-60
2023/01/19 18:10:37;;;;;;;16.63;8.63;;;;;;;4.61;74.73;99586.06;10307839;28;20059;-60
2023/01/19 18:15:38;;;;;;;18.02;9.55;;;;;;;4.51;74.72;99589.66;10306640;28;20047;-61
2023/01/19 18:20:43;;;;;;;19.08;9.18;;;;;;;4.52;74.26;99586.03;10307923;28;20055;-60
2023/01/19 18:25:44;;;;;;;20.27;9.55;;;;;;;4.49;74.71;99586.31;10295995;28;20430;-61
2023/01/19 18:30:46;;;;;;;22.90;10.43;;;;;;;4.47;74.44;99595.47;10300333;28;20438;-59
2023/01/19 18:35:47;;;;;;;19.67;9.48;;;;;;;4.47;74.83;99595.47;10305458;28;20122;-59
2023/01/19 18:40:58;;;;;;;21.35;9.85;;;;;;;4.35;75.15;99593.03;10300813;28;20069;-61
2023/01/19 18:46:00;;;;;;;22.48;10.70;;;;;;;4.21;75.71;99598.94;10310827;28;20058;-61
2023/01/19 18:51:09;;;;;;;21.08;10.75;;;;;;;4.18;75.32;99602.72;10301948;28;20141;-59
2023/01/19 18:56:12;;;;;;;23.77;12.30;;;;;;;4.14;75.21;99598.69;10306484;28;20094;-59
2023/01/19 19:01:16;;;;;;;19.70;10.65;;;;;;;4.10;75.25;99607.13;10314083;28;20062;-61
2023/01/19 19:06:19;;;;;;;20.00;10.93;;;;;;;4.06;75.30;99605.75;10303290;28;20058;-61
2023/01/19 19:11:22;;;;;;;21.48;10.40;;;;;;;4.02;75.16;99605.22;10303852;28;20437;-60
2023/01/19 19:16:25;;;;;;;24.67;10.60;;;;;;;4.01;74.93;99603.56;10299607;28;20066;-60
2023/01/19 19:21:26;;;;;;;32.38;12.00;;;;;;;3.97;74.88;99607.53;10300575;28;20498;-61
2023/01/19 19:26:28;;;;;;;27.42;11.75;;;;;;;3.87;74.72;99610.25;10285200;28;20284;-62
2023/01/19 19:31:30;;;;;;;25.75;11.93;;;;;;;3.79;75.05;99615.47;10315634;28;20123;-59
2023/01/19 19:36:32;;;;;;;27.13;12.80;;;;;;;3.68;75.25;99618.34;10316962;28;20130;-60
2023/01/19 19:41:36;;;;;;;26.83;12.00;;;;;;;3.60;75.22;99612.97;10313766;28;20050;-60
2023/01/19 19:46:37;;;;;;;27.92;13.30;;;;;;;3.50;75.60;99621.00;10300941;28;20113;-60
2023/01/19 19:51:39;;;;;;;27.65;12.02;;;;;;;3.41;75.89;99619.22;10300779;28;20051;-60
2023/01/19 19:56:40;;;;;;;32.05;14.27;;;;;;;3.33;76.01;99630.56;10315747;28;20043;-60
2023/01/19 20:01:42;;;;;;;31.20;12.88;;;;;;;3.30;75.81;99630.88;10315512;28;20043;-61
2023/01/19 20:06:45;;;;;;;32.85;13.25;;;;;;;3.29;75.67;99634.50;10316432;28;20067;-60
2023/01/19 20:11:47;;;;;;;27.67;13.25;;;;;;;3.27;75.29;99636.47;10310191;28;20038;-60
2023/01/19 20:16:49;;;;;;;28.88;14.15;;;;;;;3.25;75.71;99647.22;10310172;28;20101;-58
2023/01/19 20:21:51;;;;;;;32.97;16.50;;;;;;;3.31;75.20;99649.31;10305826;28;20059;-58
2023/01/19 20:26:53;;;;;;;32.15;15.75;;;;;;;3.23;75.35;99654.50;10315467;28;20042;-61
2023/01/19 20:31:55;;;;;;;33.35;15.98;;;;;;;3.20;75.50;99644.19;10319217;28;20046;-61
2023/01/19 20:36:56;;;;;;;31.13;15.13;;;;;;;3.18;75.72;99652.31;10318347;28;20046;-61
2023/01/19 20:41:58;;;;;;;40.80;20.02;;;;;;;3.13;75.42;99656.38;10315022;28;20055;-59
2023/01/19 20:46:59;;;;;;;41.15;19.55;;;;;;;3.12;75.39;99658.19;10307761;28;20119;-59
2023/01/19 20:52:01;;;;;;;53.38;20.35;;;;;;;3.06;75.37;99653.47;10312780;28;20054;-58
2023/01/19 20:57:02;;;;;;;76.25;28.55;;;;;;;2.97;75.66;99654.34;10298890;28;20051;-59
2023/01/19 21:02:06;;;;;;;35.63;17.42;;;;;;;2.94;75.48;99649.28;10322301;28;20070;-58
2023/01/19 21:07:08;;;;;;;35.70;16.13;;;;;;;2.93;75.55;99659.09;10319512;28;20057;-62
2023/01/19 21:12:10;;;;;;;39.55;15.93;;;;;;;2.90;75.89;99662.03;10317373;28;20049;-60
2023/01/19 21:17:11;;;;;;;37.65;16.27;;;;;;;2.89;75.57;99670.16;10313016;28;20038;-61
2023/01/19 21:22:12;;;;;;;34.55;15.38;;;;;;;2.88;75.37;99682.56;10317050;28;20078;-61
2023/01/19 21:27:14;;;;;;;36.15;16.35;;;;;;;2.87;75.51;99696.81;10323672;28;20042;-62
2023/01/19 21:32:15;;;;;;;38.20;16.00;;;;;;;2.87;75.00;99688.03;10321719;28;20153;-61
2023/01/19 21:37:16;;;;;;;34.70;14.93;;;;;;;2.86;75.24;99696.97;10313558;28;20058;-60
2023/01/19 21:42:18;;;;;;;32.53;14.90;;;;;;;2.78;74.74;99698.53;10315506;28;20053;-61
2023/01/19 21:47:19;;;;;;;33.15;15.02;;;;;;;2.76;75.01;99703.16;10305093;28;20053;-60
2023/01/19 21:52:20;;;;;;;37.33;14.52;;;;;;;2.73;74.47;99710.53;10309102;28;20494;-60
2023/01/19 21:57:22;;;;;;;36.35;15.05;;;;;;;2.71;74.67;99715.97;10306104;28;20060;-61
2023/01/19 22:02:23;;;;;;;37.30;15.55;;;;;;;2.68;74.95;99715.44;10308272;28;20043;-62
2023/01/19 22:07:39;;;;;;;39.85;15.45;;;;;;;2.67;74.65;99727.84;10311775;28;20637;-63
2023/01/19 22:12:40;;;;;;;42.25;16.20;;;;;;;2.74;74.64;99728.94;10310968;28;20046;-61
2023/01/19 22:17:41;;;;;;;39.20;15.57;;;;;;;2.86;75.19;99734.13;10305807;28;20073;-60
2023/01/19 22:22:43;;;;;;;40.05;16.35;;;;;;;2.90;75.34;99743.47;10300163;28;20055;-63
2023/01/19 22:27:44;;;;;;;41.40;15.90;;;;;;;2.96;75.54;99743.75;10305845;28;20051;-60
2023/01/19 22:32:45;;;;;;;40.50;16.27;;;;;;;3.05;74.89;99741.22;10302289;28;20043;-62
2023/01/19 22:37:47;;;;;;;38.33;17.90;;;;;;;3.09;75.51;99746.09;10301656;28;20043;-59
2023/01/19 22:42:48;;;;;;;44.70;19.17;;;;;;;3.18;75.10;99750.56;10302402;28;20078;-59
2023/01/19 22:47:50;;;;;;;38.92;18.05;;;;;;;3.27;75.28;99756.00;10306342;28;20043;-59
2023/01/19 22:52:54;;;;;;;39.88;17.38;;;;;;;3.31;75.12;99760.84;10306833;28;20058;-62
2023/01/19 22:57:55;;;;;;;42.90;17.70;;;;;;;3.37;75.54;99757.63;10309354;28;20113;-62
2023/01/19 23:02:57;;;;;;;38.35;17.45;;;;;;;3.45;75.41;99764.03;10301711;28;20039;-61
2023/01/19 23:07:58;;;;;;;36.28;16.20;;;;;;;3.50;75.07;99770.59;10305854;28;20043;-58
2023/01/19 23:12:59;;;;;;;37.65;15.98;;;;;;;3.54;75.25;99765.84;10301003;28;20054;-60
2023/01/19 23:18:01;;;;;;;38.78;18.45;;;;;;;3.61;75.71;99769.56;10304423;28;20038;-62
2023/01/19 23:23:02;;;;;;;43.10;17.38;;;;;;;3.66;75.48;99775.31;10305480;28;20078;-61
2023/01/19 23:28:03;;;;;;;44.67;17.83;;;;;;;3.72;75.07;99787.19;10308250;28;20051;-60
2023/01/19 23:33:05;;;;;;;43.05;17.38;;;;;;;3.78;75.16;99787.41;10311100;28;20113;-59
2023/01/19 23:38:06;;;;;;;41.70;18.50;;;;;;;3.82;75.19;99787.97;10305015;28;20078;-61
2023/01/19 23:43:07;;;;;;;39.80;18.40;;;;;;;3.85;75.12;99790.34;10297827;28;20047;-60
2023/01/19 23:48:09;;;;;;;35.38;17.20;;;;;;;3.86;75.00;99793.84;10312988;28;20047;-60
2023/01/19 23:53:10;;;;;;;41.30;16.70;;;;;;;3.76;75.25;99788.56;10310667;28;20058;-59
2023/01/19 23:58:11;;;;;;;41.72;16.50;;;;;;;3.56;75.92;99796.59;10306703;28;20054;-59
